createdAt,value
2018-08-22T00:00:11.998Z,1017.71
2018-08-22T00:01:11.997Z,1017.70
2018-08-22T00:02:11.994Z,1017.70
2018-08-22T00:03:11.994Z,1017.64
2018-08-22T00:04:11.995Z,1017.67
2018-08-22T00:05:11.991Z,1017.67
2018-08-22T00:06:11.991Z,1017.65
2018-08-22T00:07:11.987Z,1017.68
2018-08-22T00:08:11.987Z,1017.66
2018-08-22T00:09:11.983Z,1017.67
2018-08-22T00:10:11.985Z,1017.68
2018-08-22T00:11:11.985Z,1017.68
2018-08-22T00:12:11.980Z,1017.63
2018-08-22T00:13:11.979Z,1017.64
2018-08-22T00:14:11.978Z,1017.62
2018-08-22T00:15:12.022Z,1017.63
2018-08-22T00:16:11.976Z,1017.60
2018-08-22T00:17:11.974Z,1017.63
2018-08-22T00:18:11.968Z,1017.62
2018-08-22T00:19:11.972Z,1017.63
2018-08-22T00:20:11.970Z,1017.63
2018-08-22T00:21:11.968Z,1017.62
2018-08-22T00:22:11.966Z,1017.61
2018-08-22T00:23:11.966Z,1017.62
2018-08-22T00:24:11.960Z,1017.62
2018-08-22T00:25:11.991Z,1017.63
2018-08-22T00:26:11.961Z,1017.67
2018-08-22T00:27:11.962Z,1017.68
2018-08-22T00:28:11.958Z,1017.66
2018-08-22T00:29:11.963Z,1017.69
2018-08-22T00:30:11.953Z,1017.67
2018-08-22T00:31:11.957Z,1017.69
2018-08-22T00:32:11.953Z,1017.66
2018-08-22T00:33:11.953Z,1017.66
2018-08-22T00:34:11.951Z,1017.65
2018-08-22T00:35:11.949Z,1017.65
2018-08-22T00:36:11.947Z,1017.65
2018-08-22T00:37:11.947Z,1017.68
2018-08-22T00:38:11.943Z,1017.68
2018-08-22T00:39:11.942Z,1017.66
2018-08-22T00:40:11.939Z,1017.68
2018-08-22T00:41:11.938Z,1017.63
2018-08-22T00:42:11.940Z,1017.66
2018-08-22T00:43:11.936Z,1017.69
2018-08-22T00:44:11.937Z,1017.68
2018-08-22T00:45:11.937Z,1017.65
2018-08-22T00:46:11.928Z,1017.63
2018-08-22T00:47:11.929Z,1017.65
2018-08-22T00:48:11.929Z,1017.61
2018-08-22T00:49:11.926Z,1017.63
2018-08-22T00:50:11.924Z,1017.64
2018-08-22T00:51:11.925Z,1017.63
2018-08-22T00:52:11.923Z,1017.60
2018-08-22T00:53:11.921Z,1017.64
2018-08-22T00:54:11.922Z,1017.61
2018-08-22T00:55:11.918Z,1017.63
2018-08-22T00:56:11.917Z,1017.60
2018-08-22T00:57:11.918Z,1017.67
2018-08-22T00:58:11.913Z,1017.66
2018-08-22T00:59:11.912Z,1017.64
2018-08-22T01:00:11.910Z,1017.63
2018-08-22T01:01:11.909Z,1017.66
2018-08-22T01:02:11.910Z,1017.67
2018-08-22T01:03:11.906Z,1017.65
2018-08-22T01:04:11.912Z,1017.63
2018-08-22T01:05:11.904Z,1017.63
2018-08-22T01:06:11.900Z,1017.64
2018-08-22T01:07:11.900Z,1017.63
2018-08-22T01:08:11.900Z,1017.65
2018-08-22T01:09:11.896Z,1017.62
2018-08-22T01:10:11.894Z,1017.62
2018-08-22T01:11:11.892Z,1017.64
2018-08-22T01:12:11.891Z,1017.65
2018-08-22T01:13:11.887Z,1017.64
2018-08-22T01:14:11.888Z,1017.60
2018-08-22T01:15:11.885Z,1017.61
2018-08-22T01:16:11.883Z,1017.61
2018-08-22T01:17:11.886Z,1017.62
2018-08-22T01:18:11.879Z,1017.64
2018-08-22T01:19:11.877Z,1017.64
2018-08-22T01:20:11.879Z,1017.63
2018-08-22T01:21:11.874Z,1017.60
2018-08-22T01:22:11.874Z,1017.63
2018-08-22T01:23:11.871Z,1017.58
2018-08-22T01:24:11.870Z,1017.56
2018-08-22T01:25:11.863Z,1017.61
2018-08-22T01:26:11.866Z,1017.60
2018-08-22T01:27:11.863Z,1017.57
2018-08-22T01:28:11.862Z,1017.59
2018-08-22T01:29:11.860Z,1017.56
2018-08-22T01:30:11.857Z,1017.55
2018-08-22T01:31:11.857Z,1017.58
2018-08-22T01:32:11.852Z,1017.55
2018-08-22T01:33:11.856Z,1017.57
2018-08-22T01:34:11.850Z,1017.55
2018-08-22T01:35:11.846Z,1017.53
2018-08-22T01:36:11.844Z,1017.50
2018-08-22T01:37:11.843Z,1017.52
2018-08-22T01:38:11.843Z,1017.53
2018-08-22T01:39:11.840Z,1017.53
2018-08-22T01:40:11.842Z,1017.53
2018-08-22T01:41:11.836Z,1017.54
2018-08-22T01:42:11.836Z,1017.54
2018-08-22T01:43:11.832Z,1017.54
2018-08-22T01:44:11.829Z,1017.48
2018-08-22T01:45:11.830Z,1017.52
2018-08-22T01:46:11.826Z,1017.48
2018-08-22T01:47:11.825Z,1017.46
2018-08-22T01:48:11.824Z,1017.44
2018-08-22T01:49:11.819Z,1017.43
2018-08-22T01:50:11.817Z,1017.39
2018-08-22T01:51:11.815Z,1017.41
2018-08-22T01:52:11.815Z,1017.40
2018-08-22T01:53:11.812Z,1017.41
2018-08-22T01:54:11.809Z,1017.44
2018-08-22T01:55:11.813Z,1017.42
2018-08-22T01:56:11.809Z,1017.41
2018-08-22T01:57:11.805Z,1017.41
2018-08-22T01:58:11.804Z,1017.40
2018-08-22T01:59:11.801Z,1017.38
2018-08-22T02:00:11.800Z,1017.37
2018-08-22T02:01:11.796Z,1017.35
2018-08-22T02:02:11.793Z,1017.33
2018-08-22T02:03:11.793Z,1017.30
2018-08-22T02:04:11.791Z,1017.34
2018-08-22T02:05:11.788Z,1017.31
2018-08-22T02:06:11.785Z,1017.32
2018-08-22T02:07:11.783Z,1017.31
2018-08-22T02:08:11.782Z,1017.30
2018-08-22T02:09:11.779Z,1017.31
2018-08-22T02:10:11.779Z,1017.27
2018-08-22T02:11:11.775Z,1017.29
2018-08-22T02:12:11.774Z,1017.27
2018-08-22T02:13:11.772Z,1017.25
2018-08-22T02:14:11.770Z,1017.24
2018-08-22T02:15:11.766Z,1017.23
2018-08-22T02:16:11.766Z,1017.22
2018-08-22T02:17:11.762Z,1017.24
2018-08-22T02:18:11.760Z,1017.23
2018-08-22T02:19:11.759Z,1017.24
2018-08-22T02:20:11.757Z,1017.21
2018-08-22T02:21:11.753Z,1017.24
2018-08-22T02:22:11.751Z,1017.23
2018-08-22T02:23:11.749Z,1017.24
2018-08-22T02:24:11.747Z,1017.27
2018-08-22T02:25:11.757Z,1017.25
2018-08-22T02:26:11.744Z,1017.21
2018-08-22T02:27:11.742Z,1017.22
2018-08-22T02:28:11.738Z,1017.19
2018-08-22T02:29:11.739Z,1017.23
2018-08-22T02:30:11.736Z,1017.19
2018-08-22T02:31:11.731Z,1017.22
2018-08-22T02:32:11.731Z,1017.22
2018-08-22T02:33:11.727Z,1017.23
2018-08-22T02:34:11.726Z,1017.22
2018-08-22T02:35:11.724Z,1017.22
2018-08-22T02:36:11.721Z,1017.22
2018-08-22T02:37:11.718Z,1017.22
2018-08-22T02:38:11.717Z,1017.24
2018-08-22T02:39:11.714Z,1017.18
2018-08-22T02:40:11.712Z,1017.25
2018-08-22T02:41:11.710Z,1017.25
2018-08-22T02:42:11.708Z,1017.26
2018-08-22T02:43:11.704Z,1017.21
2018-08-22T02:44:11.704Z,1017.22
2018-08-22T02:45:11.701Z,1017.24
2018-08-22T02:46:11.697Z,1017.24
2018-08-22T02:47:11.695Z,1017.24
2018-08-22T02:48:11.694Z,1017.21
2018-08-22T02:49:11.690Z,1017.20
2018-08-22T02:50:11.689Z,1017.19
2018-08-22T02:51:11.687Z,1017.21
2018-08-22T02:52:11.684Z,1017.21
2018-08-22T02:53:11.681Z,1017.18
2018-08-22T02:54:11.680Z,1017.20
2018-08-22T02:55:11.676Z,1017.19
2018-08-22T02:56:11.674Z,1017.19
2018-08-22T02:57:11.672Z,1017.19
2018-08-22T02:58:11.670Z,1017.16
2018-08-22T02:59:11.668Z,1017.13
2018-08-22T03:00:11.665Z,1017.16
2018-08-22T03:01:11.666Z,1017.13
2018-08-22T03:02:11.660Z,1017.14
2018-08-22T03:03:11.658Z,1017.17
2018-08-22T03:04:11.652Z,1017.17
2018-08-22T03:05:11.651Z,1017.17
2018-08-22T03:06:11.650Z,1017.16
2018-08-22T03:07:11.649Z,1017.18
2018-08-22T03:08:11.647Z,1017.17
2018-08-22T03:09:11.641Z,1017.18
2018-08-22T03:10:11.641Z,1017.18
2018-08-22T03:11:11.638Z,1017.23
2018-08-22T03:12:11.637Z,1017.22
2018-08-22T03:13:11.633Z,1017.19
2018-08-22T03:14:11.631Z,1017.20
2018-08-22T03:15:11.628Z,1017.22
2018-08-22T03:16:11.629Z,1017.22
2018-08-22T03:17:11.622Z,1017.22
2018-08-22T03:18:11.620Z,1017.28
2018-08-22T03:19:11.619Z,1017.25
2018-08-22T03:20:11.615Z,1017.24
2018-08-22T03:21:11.612Z,1017.19
2018-08-22T03:22:11.608Z,1017.20
2018-08-22T03:23:11.606Z,1017.22
2018-08-22T03:24:11.604Z,1017.20
2018-08-22T03:25:11.606Z,1017.19
2018-08-22T03:26:11.694Z,1017.19
2018-08-22T03:27:11.594Z,1017.20
2018-08-22T03:28:11.596Z,1017.19
2018-08-22T03:29:11.592Z,1017.17
2018-08-22T03:30:11.591Z,1017.18
2018-08-22T03:31:11.590Z,1017.19
2018-08-22T03:32:11.585Z,1017.17
2018-08-22T03:33:11.581Z,1017.20
2018-08-22T03:34:11.577Z,1017.17
2018-08-22T03:35:11.575Z,1017.18
2018-08-22T03:36:11.573Z,1017.19
2018-08-22T03:37:11.569Z,1017.15
2018-08-22T03:38:11.566Z,1017.18
2018-08-22T03:39:11.565Z,1017.15
2018-08-22T03:40:11.563Z,1017.19
2018-08-22T03:41:11.564Z,1017.22
2018-08-22T03:42:11.560Z,1017.21
2018-08-22T03:43:11.557Z,1017.22
2018-08-22T03:44:11.553Z,1017.24
2018-08-22T03:45:11.552Z,1017.24
2018-08-22T03:46:11.546Z,1017.24
2018-08-22T03:47:11.543Z,1017.23
2018-08-22T03:48:11.543Z,1017.24
2018-08-22T03:49:11.538Z,1017.21
2018-08-22T03:50:11.535Z,1017.24
2018-08-22T03:51:11.534Z,1017.22
2018-08-22T03:52:11.530Z,1017.24
2018-08-22T03:53:11.525Z,1017.23
2018-08-22T03:54:11.525Z,1017.23
2018-08-22T03:55:11.523Z,1017.21
2018-08-22T03:56:11.519Z,1017.18
2018-08-22T03:57:11.516Z,1017.18
2018-08-22T03:58:11.516Z,1017.17
2018-08-22T03:59:11.510Z,1017.15
2018-08-22T04:00:11.509Z,1017.15
2018-08-22T04:01:11.505Z,1017.16
2018-08-22T04:02:11.504Z,1017.16
2018-08-22T04:03:11.500Z,1017.18
2018-08-22T04:04:11.498Z,1017.20
2018-08-22T04:05:11.496Z,1017.19
2018-08-22T04:06:11.494Z,1017.23
2018-08-22T04:07:11.491Z,1017.21
2018-08-22T04:08:11.487Z,1017.24
2018-08-22T04:09:11.485Z,1017.21
2018-08-22T04:10:11.481Z,1017.22
2018-08-22T04:11:11.479Z,1017.23
2018-08-22T04:12:11.478Z,1017.23
2018-08-22T04:13:11.471Z,1017.18
2018-08-22T04:14:11.470Z,1017.19
2018-08-22T04:15:11.467Z,1017.19
2018-08-22T04:16:11.466Z,1017.19
2018-08-22T04:17:11.463Z,1017.20
2018-08-22T04:18:11.459Z,1017.21
2018-08-22T04:19:11.457Z,1017.18
2018-08-22T04:20:11.456Z,1017.20
2018-08-22T04:21:11.455Z,1017.18
2018-08-22T04:22:11.452Z,1017.20
2018-08-22T04:23:11.446Z,1017.20
2018-08-22T04:24:11.449Z,1017.21
2018-08-22T04:25:11.441Z,1017.16
2018-08-22T04:26:11.440Z,1017.18
2018-08-22T04:27:11.435Z,1017.15
2018-08-22T04:28:11.434Z,1017.16
2018-08-22T04:29:11.431Z,1017.15
2018-08-22T04:30:11.429Z,1017.13
2018-08-22T04:31:11.424Z,1017.19
2018-08-22T04:32:11.420Z,1017.13
2018-08-22T04:33:11.420Z,1017.16
2018-08-22T04:34:11.422Z,1017.12
2018-08-22T04:35:11.409Z,1017.12
2018-08-22T04:36:11.410Z,1017.14
2018-08-22T04:37:11.407Z,1017.12
2018-08-22T04:38:11.407Z,1017.12
2018-08-22T04:39:11.402Z,1017.15
2018-08-22T04:40:11.400Z,1017.11
2018-08-22T04:41:11.397Z,1017.12
2018-08-22T04:42:11.394Z,1017.11
2018-08-22T04:43:11.392Z,1017.08
2018-08-22T04:44:11.390Z,1017.08
2018-08-22T04:45:11.396Z,1017.07
2018-08-22T04:46:11.385Z,1017.10
2018-08-22T04:47:11.382Z,1017.05
2018-08-22T04:48:11.413Z,1017.11
2018-08-22T04:49:11.375Z,1017.08
2018-08-22T04:50:11.373Z,1017.10
2018-08-22T04:51:11.372Z,1017.10
2018-08-22T04:52:11.369Z,1017.11
2018-08-22T04:53:11.366Z,1017.15
2018-08-22T04:54:11.363Z,1017.12
2018-08-22T04:55:11.365Z,1017.15
2018-08-22T04:56:11.359Z,1017.12
2018-08-22T04:57:11.355Z,1017.11
2018-08-22T04:58:11.351Z,1017.15
2018-08-22T04:59:11.353Z,1017.12
2018-08-22T05:00:11.347Z,1017.14
2018-08-22T05:01:11.346Z,1017.15
2018-08-22T05:02:11.341Z,1017.18
2018-08-22T05:03:11.345Z,1017.17
2018-08-22T05:04:11.339Z,1017.20
2018-08-22T05:05:11.333Z,1017.21
2018-08-22T05:06:11.331Z,1017.22
2018-08-22T05:07:11.332Z,1017.20
2018-08-22T05:08:11.329Z,1017.19
2018-08-22T05:09:11.327Z,1017.23
2018-08-22T05:10:11.325Z,1017.21
2018-08-22T05:11:11.323Z,1017.21
2018-08-22T05:12:11.321Z,1017.23
2018-08-22T05:13:11.319Z,1017.23
2018-08-22T05:14:11.316Z,1017.28
2018-08-22T05:15:11.319Z,1017.23
2018-08-22T05:16:11.314Z,1017.19
2018-08-22T05:17:11.314Z,1017.20
2018-08-22T05:18:11.315Z,1017.21
2018-08-22T05:19:11.311Z,1017.21
2018-08-22T05:20:11.309Z,1017.18
2018-08-22T05:21:11.306Z,1017.16
2018-08-22T05:22:11.306Z,1017.18
2018-08-22T05:23:11.304Z,1017.18
2018-08-22T05:24:11.300Z,1017.18
2018-08-22T05:25:11.301Z,1017.20
2018-08-22T05:26:11.308Z,1017.19
2018-08-22T05:27:11.301Z,1017.18
2018-08-22T05:28:11.302Z,1017.18
2018-08-22T05:29:11.303Z,1017.24
2018-08-22T05:30:11.356Z,1017.27
2018-08-22T05:31:11.301Z,1017.25
2018-08-22T05:32:11.298Z,1017.22
2018-08-22T05:33:11.302Z,1017.24
2018-08-22T05:34:11.303Z,1017.20
2018-08-22T05:35:11.301Z,1017.24
2018-08-22T05:36:11.301Z,1017.17
2018-08-22T05:37:11.300Z,1017.20
2018-08-22T05:38:11.300Z,1017.19
2018-08-22T05:39:11.300Z,1017.21
2018-08-22T05:40:11.303Z,1017.20
2018-08-22T05:41:11.313Z,1017.17
2018-08-22T05:42:11.301Z,1017.17
2018-08-22T05:43:11.305Z,1017.16
2018-08-22T05:44:11.309Z,1017.18
2018-08-22T05:45:11.300Z,1017.13
2018-08-22T05:46:11.308Z,1017.16
2018-08-22T05:47:11.350Z,1017.13
2018-08-22T05:48:11.299Z,1017.10
2018-08-22T05:49:11.397Z,1017.11
2018-08-22T05:50:11.305Z,1017.06
2018-08-22T05:51:11.309Z,1017.13
2018-08-22T05:52:11.308Z,1017.09
2018-08-22T05:53:11.307Z,1017.05
2018-08-22T05:54:11.312Z,1017.07
2018-08-22T05:55:11.312Z,1017.12
2018-08-22T05:56:11.315Z,1017.10
2018-08-22T05:57:11.318Z,1017.10
2018-08-22T05:58:11.316Z,1017.11
2018-08-22T05:59:11.318Z,1017.09
2018-08-22T06:00:11.317Z,1017.06
2018-08-22T06:01:11.322Z,1017.10
2018-08-22T06:02:11.322Z,1017.11
2018-08-22T06:03:11.376Z,1017.09
2018-08-22T06:04:11.326Z,1017.08
2018-08-22T06:05:11.325Z,1017.07
2018-08-22T06:06:11.328Z,1017.10
2018-08-22T06:07:11.333Z,1017.06
2018-08-22T06:08:11.347Z,1017.09
2018-08-22T06:09:11.365Z,1017.04
2018-08-22T06:10:11.339Z,1017.02
2018-08-22T06:11:11.336Z,1017.05
2018-08-22T06:12:11.340Z,1017.03
2018-08-22T06:13:11.349Z,1017.04
2018-08-22T06:14:11.346Z,1017.06
2018-08-22T06:15:11.355Z,1017.04
2018-08-22T06:16:11.342Z,1017.07
2018-08-22T06:17:11.349Z,1017.08
2018-08-22T06:18:11.350Z,1017.07
2018-08-22T06:19:11.361Z,1017.06
2018-08-22T06:20:11.355Z,1017.06
2018-08-22T06:21:11.357Z,1017.03
2018-08-22T06:22:11.360Z,1017.04
2018-08-22T06:23:11.362Z,1017.02
2018-08-22T06:24:11.364Z,1017.04
2018-08-22T06:25:11.364Z,1017.07
2018-08-22T06:26:11.369Z,1017.08
2018-08-22T06:27:11.376Z,1017.06
2018-08-22T06:28:11.373Z,1017.10
2018-08-22T06:29:11.376Z,1017.10
2018-08-22T06:30:11.378Z,1017.11
2018-08-22T06:31:11.382Z,1017.11
2018-08-22T06:32:11.387Z,1017.10
2018-08-22T06:33:11.388Z,1017.10
2018-08-22T06:34:11.844Z,1017.12
2018-08-22T06:35:11.694Z,1017.12
2018-08-22T06:36:11.433Z,1017.10
2018-08-22T06:37:11.402Z,1017.09
2018-08-22T06:38:11.404Z,1017.11
2018-08-22T06:39:11.420Z,1017.08
2018-08-22T06:40:11.680Z,1017.02
2018-08-22T06:41:11.522Z,1017.01
2018-08-22T06:42:11.470Z,1016.99
2018-08-22T06:43:11.423Z,1016.99
2018-08-22T06:44:11.471Z,1016.99
2018-08-22T06:45:11.540Z,1016.99
2018-08-22T06:46:11.436Z,1016.99
2018-08-22T06:47:11.438Z,1016.98
2018-08-22T06:48:11.441Z,1016.95
2018-08-22T06:49:11.446Z,1016.94
2018-08-22T06:50:11.559Z,1016.93
2018-08-22T06:51:11.452Z,1016.96
2018-08-22T06:52:11.463Z,1016.90
2018-08-22T06:53:11.467Z,1016.95
2018-08-22T06:54:11.470Z,1016.97
2018-08-22T06:55:11.471Z,1016.99
2018-08-22T06:56:11.476Z,1017.00
2018-08-22T06:57:11.570Z,1016.97
2018-08-22T06:58:11.483Z,1016.93
2018-08-22T06:59:11.491Z,1016.96
2018-08-22T07:00:11.493Z,1016.97
2018-08-22T07:01:11.544Z,1016.96
2018-08-22T07:02:11.502Z,1017.00
2018-08-22T07:04:11.541Z,1016.97
2018-08-22T07:05:11.515Z,1017.01
2018-08-22T07:06:11.521Z,1016.98
2018-08-22T07:08:11.606Z,1017.01
2018-08-22T07:09:11.567Z,1016.99
2018-08-22T07:10:11.542Z,1016.99
2018-08-22T07:11:11.548Z,1016.98
2018-08-22T07:12:11.555Z,1016.96
2018-08-22T07:13:11.694Z,1016.96
2018-08-22T07:14:11.805Z,1016.95
2018-08-22T07:15:11.846Z,1016.96
2018-08-22T07:16:11.734Z,1016.95
2018-08-22T07:17:11.643Z,1016.95
2018-08-22T07:18:11.586Z,1016.95
2018-08-22T07:19:11.592Z,1016.95
2018-08-22T07:20:11.599Z,1016.96
2018-08-22T07:21:11.606Z,1016.93
2018-08-22T07:22:11.610Z,1016.95
2018-08-22T07:23:11.617Z,1016.90
2018-08-22T07:24:11.625Z,1016.91
2018-08-22T07:25:11.628Z,1016.90
2018-08-22T07:26:11.634Z,1016.92
2018-08-22T07:27:11.639Z,1016.91
2018-08-22T07:28:11.648Z,1016.90
2018-08-22T07:29:11.652Z,1016.89
2018-08-22T07:30:11.743Z,1016.89
2018-08-22T07:31:11.666Z,1016.88
2018-08-22T07:32:11.673Z,1016.89
2018-08-22T07:33:11.677Z,1016.90
2018-08-22T07:34:11.684Z,1016.93
2018-08-22T07:35:11.692Z,1016.91
2018-08-22T07:36:11.699Z,1016.87
2018-08-22T07:37:11.710Z,1016.85
2018-08-22T07:38:11.713Z,1016.88
2018-08-22T07:39:11.720Z,1016.86
2018-08-22T07:40:11.726Z,1016.85
2018-08-22T07:41:11.732Z,1016.81
2018-08-22T07:42:11.735Z,1016.86
2018-08-22T07:43:11.745Z,1016.86
2018-08-22T07:44:11.753Z,1016.83
2018-08-22T07:45:11.758Z,1016.87
2018-08-22T07:46:11.765Z,1016.83
2018-08-22T07:47:11.849Z,1016.86
2018-08-22T07:48:11.784Z,1016.84
2018-08-22T07:49:11.788Z,1016.84
2018-08-22T07:50:11.803Z,1016.86
2018-08-22T07:51:11.805Z,1016.82
2018-08-22T07:52:11.811Z,1016.80
2018-08-22T07:53:11.831Z,1016.81
2018-08-22T07:54:11.825Z,1016.78
2018-08-22T07:55:11.833Z,1016.78
2018-08-22T07:56:11.841Z,1016.78
2018-08-22T07:57:11.845Z,1016.76
2018-08-22T07:58:11.853Z,1016.81
2018-08-22T07:59:11.864Z,1016.79
2018-08-22T08:00:11.952Z,1016.80
2018-08-22T08:01:11.871Z,1016.80
2018-08-22T08:02:11.877Z,1016.78
2018-08-22T08:03:11.883Z,1016.80
2018-08-22T08:04:11.889Z,1016.75
2018-08-22T08:05:11.897Z,1016.77
2018-08-22T08:06:11.900Z,1016.77
2018-08-22T08:07:11.909Z,1016.78
2018-08-22T08:08:11.914Z,1016.77
2018-08-22T08:09:11.924Z,1016.77
2018-08-22T08:10:11.922Z,1016.73
2018-08-22T08:11:11.929Z,1016.78
2018-08-22T08:12:11.933Z,1016.80
2018-08-22T08:13:11.933Z,1016.72
2018-08-22T08:14:11.943Z,1016.76
2018-08-22T08:15:11.961Z,1016.77
2018-08-22T08:16:11.951Z,1016.75
2018-08-22T08:17:12.024Z,1016.71
2018-08-22T08:18:11.960Z,1016.73
2018-08-22T08:19:11.967Z,1016.71
2018-08-22T08:20:11.973Z,1016.70
2018-08-22T08:21:11.975Z,1016.67
2018-08-22T08:22:11.980Z,1016.66
2018-08-22T08:23:11.984Z,1016.63
2018-08-22T08:24:11.988Z,1016.61
2018-08-22T08:25:11.989Z,1016.60
2018-08-22T08:26:12.045Z,1016.59
2018-08-22T08:27:12.002Z,1016.63
2018-08-22T08:28:12.004Z,1016.66
2018-08-22T08:29:12.006Z,1016.75
2018-08-22T08:30:12.011Z,1016.80
2018-08-22T08:31:12.017Z,1016.73
2018-08-22T08:32:12.022Z,1016.56
2018-08-22T08:33:12.023Z,1016.59
2018-08-22T08:34:12.031Z,1016.59
2018-08-22T08:35:12.034Z,1016.60
2018-08-22T08:36:12.147Z,1016.62
2018-08-22T08:37:12.041Z,1016.58
2018-08-22T08:38:12.047Z,1016.59
2018-08-22T08:39:12.054Z,1016.59
2018-08-22T08:40:12.055Z,1016.50
2018-08-22T08:41:12.059Z,1016.52
2018-08-22T08:42:12.064Z,1016.54
2018-08-22T08:43:12.074Z,1016.53
2018-08-22T08:44:12.074Z,1016.49
2018-08-22T08:45:12.081Z,1016.51
2018-08-22T08:46:12.079Z,1016.51
2018-08-22T08:47:12.083Z,1016.48
2018-08-22T08:48:12.088Z,1016.53
2018-08-22T08:49:12.090Z,1016.44
2018-08-22T08:50:12.091Z,1016.46
2018-08-22T08:51:12.105Z,1016.43
2018-08-22T08:52:12.101Z,1016.43
2018-08-22T08:53:12.105Z,1016.41
2018-08-22T08:54:12.109Z,1016.37
2018-08-22T08:55:12.113Z,1016.34
2018-08-22T08:56:12.119Z,1016.32
2018-08-22T08:57:12.154Z,1016.27
2018-08-22T08:58:12.123Z,1016.27
2018-08-22T08:59:12.128Z,1016.25
2018-08-22T09:00:12.138Z,1016.29
2018-08-22T09:01:12.159Z,1016.28
2018-08-22T09:02:12.138Z,1016.29
2018-08-22T09:03:12.140Z,1016.25
2018-08-22T09:04:12.144Z,1016.28
2018-08-22T09:05:12.152Z,1016.26
2018-08-22T09:06:12.153Z,1016.25
2018-08-22T09:07:12.155Z,1016.22
2018-08-22T09:08:12.159Z,1016.21
2018-08-22T09:09:12.163Z,1016.19
2018-08-22T09:10:12.165Z,1016.24
2018-08-22T09:11:12.170Z,1016.18
2018-08-22T09:12:12.201Z,1016.15
2018-08-22T09:13:12.176Z,1016.10
2018-08-22T09:14:12.180Z,1016.12
2018-08-22T09:15:12.187Z,1016.13
2018-08-22T09:16:12.187Z,1016.13
2018-08-22T09:17:12.219Z,1016.11
2018-08-22T09:18:12.193Z,1016.10
2018-08-22T09:19:12.198Z,1016.13
2018-08-22T09:20:12.200Z,1016.09
2018-08-22T09:21:12.219Z,1016.11
2018-08-22T09:22:12.225Z,1016.11
2018-08-22T09:23:12.212Z,1016.12
2018-08-22T09:24:12.288Z,1016.12
2018-08-22T09:25:12.216Z,1016.12
2018-08-22T09:26:12.221Z,1016.11
2018-08-22T09:27:12.225Z,1016.07
2018-08-22T09:28:12.260Z,1016.08
2018-08-22T09:29:12.230Z,1016.09
2018-08-22T09:30:12.231Z,1016.04
2018-08-22T09:31:12.236Z,1016.04
2018-08-22T09:32:12.240Z,1016.04
2018-08-22T09:33:12.243Z,1016.10
2018-08-22T09:34:12.244Z,1016.08
2018-08-22T09:35:12.249Z,1016.08
2018-08-22T09:36:12.254Z,1016.09
2018-08-22T09:37:12.256Z,1016.08
2018-08-22T09:38:12.257Z,1016.04
2018-08-22T09:39:12.261Z,1016.01
2018-08-22T09:40:12.324Z,1016.02
2018-08-22T09:41:12.270Z,1015.95
2018-08-22T09:42:12.271Z,1015.96
2018-08-22T09:43:12.323Z,1015.95
2018-08-22T09:44:12.280Z,1015.95
2018-08-22T09:45:12.283Z,1015.92
2018-08-22T09:46:12.281Z,1015.95
2018-08-22T09:47:12.288Z,1015.93
2018-08-22T09:48:12.299Z,1015.89
2018-08-22T09:49:12.296Z,1015.91
2018-08-22T09:50:12.323Z,1015.92
2018-08-22T09:51:12.324Z,1015.88
2018-08-22T09:52:12.304Z,1015.90
2018-08-22T09:53:12.310Z,1015.92
2018-08-22T09:54:12.311Z,1015.89
2018-08-22T09:55:12.315Z,1015.86
2018-08-22T09:56:12.317Z,1015.84
2018-08-22T09:57:12.320Z,1015.83
2018-08-22T09:58:12.438Z,1015.82
2018-08-22T09:59:12.330Z,1015.80
2018-08-22T10:00:12.362Z,1015.75
2018-08-22T10:01:12.335Z,1015.69
2018-08-22T10:02:12.338Z,1015.73
2018-08-22T10:03:12.342Z,1015.73
2018-08-22T10:04:12.346Z,1015.75
2018-08-22T10:05:12.348Z,1015.74
2018-08-22T10:06:12.366Z,1015.69
2018-08-22T10:07:12.464Z,1015.68
2018-08-22T10:08:12.363Z,1015.68
2018-08-22T10:09:12.363Z,1015.66
2018-08-22T10:10:12.397Z,1015.64
2018-08-22T10:11:12.374Z,1015.65
2018-08-22T10:12:12.375Z,1015.64
2018-08-22T10:13:12.376Z,1015.65
2018-08-22T10:14:12.379Z,1015.63
2018-08-22T10:15:12.382Z,1015.64
2018-08-22T10:16:12.387Z,1015.68
2018-08-22T10:17:12.399Z,1015.66
2018-08-22T10:18:12.394Z,1015.68
2018-08-22T10:19:12.439Z,1015.71
2018-08-22T10:20:12.402Z,1015.63
2018-08-22T10:21:12.406Z,1015.64
2018-08-22T10:22:12.409Z,1015.64
2018-08-22T10:23:12.412Z,1015.59
2018-08-22T10:24:12.419Z,1015.59
2018-08-22T10:25:12.417Z,1015.58
2018-08-22T10:26:12.423Z,1015.58
2018-08-22T10:27:12.430Z,1015.55
2018-08-22T10:28:12.431Z,1015.53
2018-08-22T10:29:12.435Z,1015.53
2018-08-22T10:30:12.438Z,1015.49
2018-08-22T10:31:12.443Z,1015.45
2018-08-22T10:32:12.446Z,1015.50
2018-08-22T10:33:12.448Z,1015.47
2018-08-22T10:34:12.450Z,1015.47
2018-08-22T10:35:12.455Z,1015.44
2018-08-22T10:36:12.460Z,1015.40
2018-08-22T10:37:12.462Z,1015.38
2018-08-22T10:38:12.466Z,1015.36
2018-08-22T10:39:12.468Z,1015.37
2018-08-22T10:40:12.478Z,1015.36
2018-08-22T10:41:12.478Z,1015.35
2018-08-22T10:42:12.481Z,1015.35
2018-08-22T10:43:12.485Z,1015.35
2018-08-22T10:44:12.486Z,1015.35
2018-08-22T10:45:12.491Z,1015.35
2018-08-22T10:46:12.499Z,1015.37
2018-08-22T10:47:12.502Z,1015.35
2018-08-22T10:48:12.503Z,1015.32
2018-08-22T10:49:12.504Z,1015.36
2018-08-22T10:50:12.509Z,1015.40
2018-08-22T10:51:12.513Z,1015.36
2018-08-22T10:52:12.518Z,1015.34
2018-08-22T10:53:12.519Z,1015.35
2018-08-22T10:54:12.526Z,1015.39
2018-08-22T10:55:12.532Z,1015.34
2018-08-22T10:56:12.531Z,1015.34
2018-08-22T10:57:12.534Z,1015.33
2018-08-22T10:58:12.539Z,1015.29
2018-08-22T10:59:12.544Z,1015.33
2018-08-22T11:00:12.548Z,1015.26
2018-08-22T11:01:12.552Z,1015.25
2018-08-22T11:02:12.554Z,1015.31
2018-08-22T11:03:12.558Z,1015.28
2018-08-22T11:04:12.562Z,1015.25
2018-08-22T11:05:12.564Z,1015.26
2018-08-22T11:06:12.570Z,1015.28
2018-08-22T11:07:12.576Z,1015.25
2018-08-22T11:08:12.577Z,1015.16
2018-08-22T11:09:12.581Z,1015.17
2018-08-22T11:10:12.586Z,1015.15
2018-08-22T11:11:12.590Z,1015.16
2018-08-22T11:12:12.592Z,1015.13
2018-08-22T11:13:12.595Z,1015.15
2018-08-22T11:14:12.605Z,1015.13
2018-08-22T11:15:12.603Z,1015.10
2018-08-22T11:16:12.641Z,1015.09
2018-08-22T11:17:12.614Z,1015.11
2018-08-22T11:18:12.617Z,1015.10
2018-08-22T11:19:12.619Z,1015.06
2018-08-22T11:20:12.624Z,1015.06
2018-08-22T11:21:12.626Z,1015.03
2018-08-22T11:22:12.633Z,1015.00
2018-08-22T11:23:12.637Z,1015.01
2018-08-22T11:24:12.640Z,1015.02
2018-08-22T11:25:12.645Z,1014.98
2018-08-22T11:26:12.652Z,1015.00
2018-08-22T11:27:12.655Z,1014.94
2018-08-22T11:28:12.656Z,1014.95
2018-08-22T11:29:12.661Z,1014.94
2018-08-22T11:30:12.671Z,1014.92
2018-08-22T11:31:12.668Z,1014.90
2018-08-22T11:32:12.675Z,1014.87
2018-08-22T11:33:12.674Z,1014.90
2018-08-22T11:34:12.680Z,1014.92
2018-08-22T11:35:12.680Z,1014.95
2018-08-22T11:36:12.689Z,1014.89
2018-08-22T11:37:12.688Z,1014.90
2018-08-22T11:38:12.697Z,1014.91
2018-08-22T11:39:12.699Z,1014.95
2018-08-22T11:40:12.706Z,1014.92
2018-08-22T11:41:12.710Z,1014.92
2018-08-22T11:42:12.709Z,1014.90
2018-08-22T11:43:12.716Z,1014.89
2018-08-22T11:44:12.722Z,1014.88
2018-08-22T11:45:12.724Z,1014.85
2018-08-22T11:46:12.731Z,1014.86
2018-08-22T11:47:12.740Z,1014.86
2018-08-22T11:48:12.741Z,1014.84
2018-08-22T11:49:12.741Z,1014.83
2018-08-22T11:50:12.749Z,1014.89
2018-08-22T11:51:12.748Z,1014.90
2018-08-22T11:52:12.758Z,1014.89
2018-08-22T11:53:12.765Z,1014.88
2018-08-22T11:54:12.765Z,1014.85
2018-08-22T11:55:12.767Z,1014.84
2018-08-22T11:56:12.772Z,1014.79
2018-08-22T11:57:12.775Z,1014.76
2018-08-22T11:58:12.784Z,1014.72
2018-08-22T11:59:12.783Z,1014.71
2018-08-22T12:00:12.787Z,1014.78
2018-08-22T12:01:12.792Z,1014.74
2018-08-22T12:02:12.797Z,1014.73
2018-08-22T12:03:12.803Z,1014.73
2018-08-22T12:04:12.807Z,1014.67
2018-08-22T12:05:12.809Z,1014.66
2018-08-22T12:06:12.814Z,1014.66
2018-08-22T12:07:12.821Z,1014.67